createdAt,value
2022-10-11T00:02:10.909Z,46.22
2022-10-11T00:04:37.866Z,52.45
2022-10-11T00:07:04.728Z,60.47
2022-10-11T00:09:31.582Z,59.70
2022-10-11T00:11:58.364Z,53.63
2022-10-11T00:14:27.187Z,43.85
2022-10-11T00:16:55.478Z,50.33
2022-10-11T00:19:22.496Z,50.10
2022-10-11T00:21:49.271Z,52.97
2022-10-11T00:24:16.831Z,49.30
2022-10-11T00:26:46.722Z,52.58
2022-10-11T00:29:14.205Z,60.53
2022-10-11T00:31:40.999Z,58.17
2022-10-11T00:34:08.705Z,50.60
2022-10-11T00:36:35.680Z,51.00
2022-10-11T00:39:02.499Z,59.42
2022-10-11T00:41:29.364Z,55.08
2022-10-11T00:44:13.032Z,56.13
2022-10-11T00:46:42.300Z,61.97
2022-10-11T00:49:21.651Z,55.05
2022-10-11T00:51:53.459Z,52.97
2022-10-11T00:56:56.469Z,52.42
2022-10-11T00:59:31.133Z,46.67
2022-10-11T01:01:58.136Z,52.88
2022-10-11T01:04:24.954Z,59.10
2022-10-11T01:06:53.251Z,65.30
2022-10-11T01:09:21.162Z,57.22
2022-10-11T01:11:52.013Z,55.20
2022-10-11T01:14:56.481Z,57.20
2022-10-11T01:17:38.160Z,63.88
2022-10-11T01:20:26.530Z,61.08
2022-10-11T01:23:04.281Z,56.90
2022-10-11T01:25:56.426Z,57.20
2022-10-11T01:31:07.767Z,53.72
2022-10-11T01:33:45.464Z,66.13
2022-10-11T01:36:38.022Z,64.57
2022-10-11T01:39:25.238Z,72.25
2022-10-11T01:41:56.245Z,64.20
2022-10-11T01:44:25.264Z,58.42
2022-10-11T01:46:53.141Z,55.67
2022-10-11T01:49:20.417Z,72.75
2022-10-11T01:51:52.140Z,62.33
2022-10-11T01:54:49.798Z,59.88
2022-10-11T01:57:51.737Z,68.18
2022-10-11T02:00:20.170Z,59.78
2022-10-11T02:03:09.258Z,66.90
2022-10-11T02:06:09.932Z,65.50
2022-10-11T02:08:50.026Z,67.57
2022-10-11T02:11:31.603Z,56.15
2022-10-11T02:14:15.934Z,61.65
2022-10-11T02:17:04.038Z,62.25
2022-10-11T02:19:37.144Z,56.42
2022-10-11T02:22:08.196Z,58.00
2022-10-11T02:24:37.739Z,68.05
2022-10-11T02:27:06.192Z,58.90
2022-10-11T02:29:37.905Z,67.22
2022-10-11T02:32:06.792Z,53.15
2022-10-11T02:34:44.239Z,67.28
2022-10-11T02:37:29.024Z,53.10
2022-10-11T02:40:04.791Z,51.75
2022-10-11T02:42:44.615Z,59.10
2022-10-11T02:45:17.521Z,63.65
2022-10-11T02:47:45.144Z,51.97
2022-10-11T02:50:13.493Z,49.50
2022-10-11T02:52:40.316Z,50.38
2022-10-11T02:55:08.216Z,63.78
2022-10-11T02:57:35.069Z,48.15
2022-10-11T03:00:01.936Z,55.85
2022-10-11T03:02:28.717Z,53.63
2022-10-11T03:04:55.490Z,61.25
2022-10-11T03:07:22.239Z,50.53
2022-10-11T03:09:49.207Z,53.90
2022-10-11T03:12:16.053Z,57.35
2022-10-11T03:14:42.803Z,52.03
2022-10-11T03:17:34.494Z,53.55
2022-10-11T03:19:56.300Z,59.95
2022-10-11T03:22:23.180Z,65.30
2022-10-11T03:24:49.920Z,58.50
2022-10-11T03:27:16.789Z,55.50
2022-10-11T03:29:43.597Z,62.33
2022-10-11T03:32:10.366Z,58.03
2022-10-11T03:34:37.116Z,56.35
2022-10-11T03:37:04.019Z,62.00
2022-10-11T03:39:30.857Z,59.65
2022-10-11T03:41:57.815Z,61.72
2022-10-11T03:44:24.731Z,51.15
2022-10-11T03:46:51.499Z,56.78
2022-10-11T03:49:18.318Z,58.63
2022-10-11T03:51:45.095Z,56.60
2022-10-11T03:54:11.862Z,56.92
2022-10-11T03:56:38.612Z,54.70
2022-10-11T03:59:05.481Z,65.70
2022-10-11T04:01:37.607Z,61.75
2022-10-11T04:04:05.548Z,60.35
2022-10-11T04:06:32.526Z,53.78
2022-10-11T04:08:59.779Z,57.40
2022-10-11T04:11:27.074Z,53.75
2022-10-11T04:13:54.103Z,54.03
2022-10-11T04:16:20.944Z,57.83
2022-10-11T04:18:47.830Z,63.30
2022-10-11T04:21:14.595Z,60.22
2022-10-11T04:23:41.368Z,58.65
2022-10-11T04:26:08.878Z,56.67
2022-10-11T04:28:35.943Z,56.60
2022-10-11T04:31:05.082Z,64.63
2022-10-11T04:33:32.080Z,53.60
2022-10-11T04:35:58.949Z,53.35
2022-10-11T04:38:26.948Z,64.45
2022-10-11T04:40:53.741Z,52.25
2022-10-11T04:43:20.792Z,57.47
2022-10-11T04:45:47.624Z,53.40
2022-10-11T04:48:14.502Z,51.28
2022-10-11T04:50:41.357Z,49.63
2022-10-11T04:53:08.386Z,49.85
2022-10-11T04:55:35.421Z,57.35
2022-10-11T04:58:02.387Z,53.63
2022-10-11T05:00:29.396Z,53.78
2022-10-11T05:02:56.508Z,47.10
2022-10-11T05:05:23.526Z,48.20
2022-10-11T05:07:50.573Z,50.80
2022-10-11T05:10:17.713Z,53.40
2022-10-11T05:12:44.755Z,50.90
2022-10-11T05:15:11.912Z,58.05
2022-10-11T05:17:38.915Z,47.78
2022-10-11T05:20:06.419Z,53.72
2022-10-11T05:22:33.385Z,56.15
2022-10-11T05:25:00.621Z,60.00
2022-10-11T05:27:27.551Z,64.93
2022-10-11T05:29:54.644Z,65.22
2022-10-11T05:32:21.617Z,58.15
2022-10-11T05:34:48.639Z,55.58
2022-10-11T05:37:15.769Z,53.15
2022-10-11T05:39:42.774Z,53.95
2022-10-11T05:42:10.159Z,51.42
2022-10-11T05:44:37.229Z,53.47
2022-10-11T05:47:04.420Z,56.65
2022-10-11T05:49:31.668Z,46.30
2022-10-11T05:51:58.761Z,47.72
2022-10-11T05:54:28.865Z,45.80
2022-10-11T05:56:55.963Z,47.50
2022-10-11T05:59:23.188Z,48.40
2022-10-11T06:01:50.256Z,49.53
2022-10-11T06:04:19.197Z,44.88
2022-10-11T06:06:46.492Z,48.45
2022-10-11T06:09:13.548Z,52.15
2022-10-11T06:11:41.579Z,47.33
2022-10-11T06:14:09.776Z,48.00
2022-10-11T06:16:36.869Z,54.30
2022-10-11T06:19:04.736Z,44.90
2022-10-11T06:21:31.952Z,52.05
2022-10-11T06:24:01.900Z,47.78
2022-10-11T06:26:29.452Z,44.60
2022-10-11T06:28:56.583Z,50.33
2022-10-11T06:31:23.979Z,50.65
2022-10-11T06:33:51.316Z,46.45
2022-10-11T06:36:19.365Z,51.97
2022-10-11T06:38:46.494Z,49.58
2022-10-11T06:41:17.844Z,43.67
2022-10-11T06:43:45.835Z,53.58
2022-10-11T06:46:13.475Z,48.38
2022-10-11T06:48:43.698Z,41.55
2022-10-11T06:51:11.748Z,42.75
2022-10-11T06:53:38.996Z,40.70
2022-10-11T06:56:09.480Z,38.20
2022-10-11T06:58:37.635Z,43.65
2022-10-11T07:01:08.001Z,39.45
2022-10-11T07:03:35.103Z,44.70
2022-10-11T07:06:09.009Z,38.83
2022-10-11T07:08:37.254Z,38.35
2022-10-11T07:11:07.687Z,49.45
2022-10-11T07:13:34.984Z,45.83
2022-10-11T07:16:03.776Z,40.70
2022-10-11T07:18:31.498Z,42.28
2022-10-11T07:20:59.488Z,39.97
2022-10-11T07:23:26.362Z,35.30
2022-10-11T07:25:54.912Z,30.83
2022-10-11T07:28:22.812Z,26.90
2022-10-11T07:30:50.040Z,32.22
2022-10-11T07:33:17.160Z,23.65
2022-10-11T07:35:48.184Z,28.83
2022-10-11T07:38:16.327Z,26.77
2022-10-11T07:40:45.819Z,30.13
2022-10-11T07:43:14.100Z,30.38
2022-10-11T07:45:42.974Z,31.90
2022-10-11T07:48:09.921Z,33.35
2022-10-11T07:50:37.100Z,33.70
2022-10-11T07:53:04.734Z,31.55
2022-10-11T07:55:40.309Z,30.60
2022-10-11T07:58:11.872Z,26.92
2022-10-11T08:00:40.310Z,34.13
2022-10-11T08:03:07.990Z,27.73
2022-10-11T08:05:36.998Z,27.67
2022-10-11T08:08:04.097Z,34.88
2022-10-11T08:10:36.761Z,26.30
2022-10-11T08:13:04.548Z,26.15
2022-10-11T08:15:31.811Z,27.63
2022-10-11T08:17:59.002Z,30.05
2022-10-11T08:20:26.127Z,31.13
2022-10-11T08:22:53.812Z,26.23
2022-10-11T08:25:20.945Z,30.35
2022-10-11T08:27:47.973Z,27.65
2022-10-11T08:30:15.120Z,23.92
2022-10-11T08:32:42.269Z,32.88
2022-10-11T08:35:09.443Z,23.00
2022-10-11T08:37:36.499Z,25.80
2022-10-11T08:40:04.269Z,25.45
2022-10-11T08:42:35.667Z,28.90
2022-10-11T08:45:19.138Z,23.33
2022-10-11T08:47:47.524Z,24.00
2022-10-11T08:50:21.827Z,23.05
2022-10-11T08:52:51.422Z,22.98
2022-10-11T08:55:44.217Z,20.77
2022-10-11T08:58:25.879Z,24.83
2022-10-11T09:00:56.762Z,19.48
2022-10-11T09:03:41.045Z,25.43
2022-10-11T09:06:30.023Z,18.92
2022-10-11T09:09:16.589Z,19.58
2022-10-11T09:12:13.580Z,20.00
2022-10-11T09:15:24.903Z,21.42
2022-10-11T09:18:05.060Z,21.98
2022-10-11T09:20:46.539Z,23.17
2022-10-11T09:23:22.976Z,20.45
2022-10-11T09:25:58.044Z,35.65
2022-10-11T09:28:48.473Z,27.85
2022-10-11T09:31:17.072Z,19.63
2022-10-11T09:33:49.394Z,26.20
2022-10-11T09:37:01.665Z,20.88
2022-10-11T09:39:44.092Z,17.77
2022-10-11T09:42:12.745Z,22.27
2022-10-11T09:44:46.899Z,24.58
2022-10-11T09:47:25.438Z,18.50
2022-10-11T09:50:04.067Z,19.48
2022-10-11T09:52:34.865Z,17.45
2022-10-11T09:55:03.383Z,18.00
2022-10-11T09:57:33.685Z,17.08
2022-10-11T10:00:28.435Z,19.95
2022-10-11T10:02:58.268Z,22.55
2022-10-11T10:05:31.488Z,18.98
2022-10-11T10:08:05.049Z,22.00
2022-10-11T10:10:40.383Z,20.02
2022-10-11T10:13:35.044Z,18.77
2022-10-11T10:16:05.336Z,20.70
2022-10-11T10:18:55.254Z,25.77
2022-10-11T10:21:45.740Z,17.63
2022-10-11T10:24:35.715Z,17.63
2022-10-11T10:27:13.804Z,18.08
2022-10-11T10:29:42.482Z,16.00
2022-10-11T10:32:19.695Z,18.38
2022-10-11T10:35:00.633Z,23.67
2022-10-11T10:37:35.464Z,19.27
2022-10-11T10:40:15.708Z,22.35
2022-10-11T10:42:45.883Z,17.15
2022-10-11T10:45:27.158Z,18.15
2022-10-11T10:48:18.584Z,17.48
2022-10-11T10:51:12.393Z,26.02
2022-10-11T10:53:53.890Z,15.25
2022-10-11T10:56:48.648Z,14.80
2022-10-11T10:59:39.350Z,15.65
2022-10-11T11:02:40.092Z,22.13
2022-10-11T11:05:21.182Z,16.90
2022-10-11T11:08:08.010Z,14.85
2022-10-11T11:11:13.615Z,16.02
2022-10-11T11:14:28.530Z,20.55
2022-10-11T11:16:58.619Z,15.90
2022-10-11T11:19:58.896Z,17.88
2022-10-11T11:22:36.550Z,15.73
2022-10-11T11:25:21.507Z,11.98
2022-10-11T11:28:03.771Z,16.98
2022-10-11T11:30:53.564Z,14.95
2022-10-11T11:33:49.036Z,20.08
2022-10-11T11:36:40.872Z,16.50
2022-10-11T11:39:19.751Z,16.00
2022-10-11T11:42:22.689Z,17.48
2022-10-11T11:47:34.030Z,17.70
2022-10-11T11:50:15.390Z,17.05
2022-10-11T11:52:47.510Z,13.18
2022-10-11T12:03:55.869Z,17.08
2022-10-11T12:06:33.606Z,13.70
2022-10-11T12:12:07.129Z,16.13
2022-10-11T12:14:36.517Z,11.80
2022-10-11T12:19:31.816Z,15.35
2022-10-11T12:25:18.490Z,17.17
2022-10-11T12:27:57.158Z,15.98
2022-10-11T12:30:56.784Z,15.57
2022-10-11T12:33:32.686Z,14.57
2022-10-11T12:36:25.201Z,15.30
2022-10-11T12:39:20.543Z,21.45
2022-10-11T12:47:42.208Z,14.90
2022-10-11T12:50:20.471Z,18.98
2022-10-11T12:53:24.052Z,20.00
2022-10-11T12:56:00.575Z,20.35
2022-10-11T12:58:38.655Z,16.65
2022-10-11T13:01:15.005Z,17.48
2022-10-11T13:03:50.980Z,15.48
2022-10-11T13:06:27.186Z,17.40
2022-10-11T13:09:02.076Z,17.60
2022-10-11T13:11:36.112Z,15.98
2022-10-11T13:14:25.049Z,20.98
2022-10-11T13:16:58.962Z,23.55
2022-10-11T13:19:29.050Z,17.20
2022-10-11T13:51:36.014Z,21.70
2022-10-11T14:07:39.300Z,17.90
2022-10-11T15:01:30.178Z,29.10
2022-10-11T15:28:13.257Z,21.48
2022-10-11T15:41:15.694Z,29.47
2022-10-11T15:51:52.883Z,20.93
2022-10-11T15:57:02.489Z,19.38
2022-10-11T15:59:30.484Z,25.40
2022-10-11T16:01:58.912Z,25.13
2022-10-11T16:12:33.929Z,22.17
2022-10-11T16:15:01.688Z,20.77
2022-10-11T16:22:54.422Z,34.17
2022-10-11T16:25:22.516Z,18.40
2022-10-11T16:27:50.187Z,19.98
2022-10-11T16:30:18.643Z,22.00
2022-10-11T16:32:46.328Z,19.42
2022-10-11T16:35:15.283Z,22.35
2022-10-11T16:37:42.848Z,22.25
2022-10-11T16:40:16.853Z,16.42
2022-10-11T16:42:45.955Z,25.58
2022-10-11T16:45:14.678Z,20.02
2022-10-11T16:47:44.954Z,28.60
2022-10-11T16:50:13.838Z,20.13
2022-10-11T16:55:16.193Z,24.90
2022-10-11T16:57:43.023Z,17.65
2022-10-11T17:00:10.380Z,22.63
2022-10-11T17:02:37.328Z,18.52
2022-10-11T17:05:04.880Z,24.13
2022-10-11T17:07:32.186Z,20.52
2022-10-11T17:10:01.160Z,29.55
2022-10-11T17:12:28.301Z,24.42
2022-10-11T17:14:55.490Z,30.55
2022-10-11T17:17:22.480Z,32.15
2022-10-11T17:19:49.370Z,29.17
2022-10-11T17:22:19.156Z,38.13
2022-10-11T17:24:46.210Z,26.38
2022-10-11T17:27:13.737Z,30.23
2022-10-11T17:29:41.145Z,25.02
2022-10-11T17:32:08.609Z,27.23
2022-10-11T17:34:36.002Z,29.20
2022-10-11T17:37:03.149Z,29.98
2022-10-11T17:39:30.095Z,31.92
2022-10-11T17:41:57.087Z,33.90
2022-10-11T17:44:24.039Z,30.90
2022-10-11T17:46:51.192Z,30.80
2022-10-11T17:49:18.532Z,37.38
2022-10-11T17:51:45.778Z,39.08
2022-10-11T17:54:12.838Z,35.22
2022-10-11T17:56:41.446Z,33.60
2022-10-11T17:59:14.430Z,39.47
2022-10-11T18:01:41.442Z,36.50
2022-10-11T18:04:16.428Z,36.15
2022-10-11T18:06:45.268Z,40.72
2022-10-11T18:09:13.860Z,39.38
2022-10-11T18:11:41.070Z,40.75
2022-10-11T18:14:08.427Z,35.85
2022-10-11T18:16:55.391Z,33.22
2022-10-11T18:19:22.338Z,35.92
2022-10-11T18:21:49.220Z,34.67
2022-10-11T18:24:16.881Z,32.08
2022-10-11T18:26:45.078Z,38.72
2022-10-11T18:29:12.730Z,42.60
2022-10-11T18:31:39.885Z,37.67
2022-10-11T18:34:11.065Z,35.50
2022-10-11T18:36:39.086Z,35.90
2022-10-11T18:39:08.472Z,45.25
2022-10-11T18:41:37.721Z,37.95
2022-10-11T18:44:07.562Z,45.78
2022-10-11T18:46:34.993Z,42.33
2022-10-11T18:49:02.219Z,43.70
2022-10-11T18:51:32.008Z,33.35
2022-10-11T18:53:59.068Z,36.65
2022-10-11T18:56:27.948Z,36.05
2022-10-11T18:58:56.724Z,38.20
2022-10-11T19:01:26.870Z,34.75
2022-10-11T19:03:59.264Z,39.58
2022-10-11T19:06:30.339Z,36.47
2022-10-11T19:09:09.355Z,35.58
2022-10-11T19:11:37.013Z,34.95
2022-10-11T19:14:11.282Z,34.33
2022-10-11T19:16:41.337Z,41.55
2022-10-11T19:19:09.969Z,37.20
2022-10-11T19:21:37.452Z,33.65
2022-10-11T19:24:04.765Z,31.45
2022-10-11T19:26:34.731Z,43.35
2022-10-11T19:29:04.433Z,43.25
2022-10-11T19:31:33.222Z,36.42
2022-10-11T19:34:00.678Z,46.45
2022-10-11T19:36:31.427Z,48.40
2022-10-11T19:39:00.914Z,39.08
2022-10-11T19:41:28.562Z,46.30
2022-10-11T19:43:58.034Z,50.13
2022-10-11T19:46:50.396Z,48.85
2022-10-11T19:49:14.049Z,41.47
2022-10-11T19:51:40.832Z,46.95
2022-10-11T19:54:12.109Z,43.45
2022-10-11T19:56:39.251Z,42.60
2022-10-11T19:59:09.005Z,51.00
2022-10-11T20:01:36.851Z,46.28
2022-10-11T20:04:06.651Z,46.70
2022-10-11T20:06:38.367Z,41.40
2022-10-11T20:09:28.455Z,37.83
2022-10-11T20:11:56.554Z,41.10
2022-10-11T20:14:23.409Z,42.20
2022-10-11T20:16:50.642Z,39.33
2022-10-11T20:19:17.734Z,37.67
2022-10-11T20:21:45.077Z,41.47
2022-10-11T20:24:12.150Z,36.75
2022-10-11T20:26:39.429Z,44.75
2022-10-11T20:29:06.486Z,34.67
2022-10-11T20:31:38.150Z,35.80
2022-10-11T20:36:36.299Z,36.28
2022-10-11T20:39:05.284Z,36.65
2022-10-11T20:41:37.005Z,32.83
2022-10-11T20:46:33.412Z,34.65
2022-10-11T20:49:03.137Z,35.65
2022-10-11T20:51:31.534Z,37.35
2022-10-11T20:53:59.516Z,29.80
2022-10-11T20:56:30.077Z,37.70
2022-10-11T20:58:58.105Z,30.60
2022-10-11T21:01:31.952Z,36.40
2022-10-11T21:04:00.983Z,39.30
2022-10-11T21:06:29.321Z,37.25
2022-10-11T21:08:57.027Z,45.40
2022-10-11T21:11:31.891Z,41.35
2022-10-11T21:14:00.672Z,40.30
2022-10-11T21:16:27.938Z,33.50
2022-10-11T21:18:56.432Z,38.38
2022-10-11T21:21:24.122Z,45.60
2022-10-11T21:24:00.932Z,35.53
2022-10-11T21:26:28.572Z,39.70
2022-10-11T21:28:55.821Z,42.70
2022-10-11T21:31:24.118Z,39.78
2022-10-11T21:33:51.202Z,52.53
2022-10-11T21:36:20.498Z,47.85
2022-10-11T21:38:48.214Z,50.13
2022-10-11T21:41:26.062Z,44.80
2022-10-11T21:43:53.719Z,36.25
2022-10-11T21:46:54.454Z,38.85
2022-10-11T21:49:19.872Z,36.70
2022-10-11T21:51:46.845Z,38.15
2022-10-11T21:54:14.226Z,47.15
2022-10-11T21:56:41.576Z,42.53
2022-10-11T21:59:11.256Z,44.67
2022-10-11T22:01:40.343Z,38.67
2022-10-11T22:04:07.820Z,42.38
2022-10-11T22:06:35.470Z,42.30
2022-10-11T22:09:04.044Z,44.25
2022-10-11T22:11:31.249Z,43.58
2022-10-11T22:13:58.903Z,43.67
2022-10-11T22:16:25.860Z,35.72
2022-10-11T22:18:55.842Z,53.15
2022-10-11T22:21:24.813Z,49.85
2022-10-11T22:23:53.749Z,33.67
2022-10-11T22:26:26.707Z,39.75
2022-10-11T22:28:53.879Z,32.92
2022-10-11T22:31:21.533Z,31.45
2022-10-11T22:33:48.703Z,37.88
2022-10-11T22:36:19.351Z,36.63
2022-10-11T22:38:46.371Z,45.47
2022-10-11T22:41:13.396Z,36.83
2022-10-11T22:43:40.513Z,40.45
2022-10-11T22:46:08.126Z,37.72
2022-10-11T22:48:35.587Z,44.95
2022-10-11T22:51:02.846Z,40.10
2022-10-11T22:53:30.505Z,44.00
2022-10-11T22:55:57.529Z,37.30
2022-10-11T22:58:24.413Z,41.90
2022-10-11T23:00:51.202Z,37.25
2022-10-11T23:03:18.808Z,38.88
2022-10-11T23:05:57.489Z,40.25
2022-10-11T23:08:24.833Z,41.08
2022-10-11T23:10:52.111Z,36.78
2022-10-11T23:13:19.139Z,44.22
2022-10-11T23:15:45.995Z,39.65
2022-10-11T23:18:13.055Z,34.83
2022-10-11T23:20:40.086Z,37.33
2022-10-11T23:23:07.371Z,42.75
2022-10-11T23:25:34.405Z,36.75
2022-10-11T23:28:02.254Z,42.08
2022-10-11T23:30:30.120Z,41.72
2022-10-11T23:32:57.061Z,39.33
2022-10-11T23:35:24.441Z,39.45
2022-10-11T23:37:53.652Z,33.45
2022-10-11T23:40:20.616Z,40.83
2022-10-11T23:42:47.425Z,34.67
2022-10-11T23:45:14.358Z,42.53
2022-10-11T23:47:41.343Z,33.88
2022-10-11T23:50:08.956Z,42.05
2022-10-11T23:52:35.835Z,32.63
2022-10-11T23:55:02.777Z,37.20
2022-10-11T23:57:29.677Z,39.50
2022-10-11T23:59:56.517Z,46.75
